Historyczne dane pomiarowe

Dodano dane terminowe – wersja testowa.

Dane z okresu 1951-2019

Wersja bazy: 1.34 [2019-03-16, lista zmian], aktualizacja planowana na 2019-04-15

Dane meteo z obszaru Polski uzyskane na podstawie danych udostępnionych przez Instytut Meteorologii i Gospodarki Wodnej – Państwowy Instytut Badawczy.

 

Wybierz Datę:    

       

TemperaturaWilgotnośćWiatrCiśnienieOpadyŚniegCzas trwania zjawisk
 Stacja t tx tn tng RH VA  wxwx mslp ppp RRR   cm mm wxwxwxwxwxwxwx
1987-08-14 15.3 17.7 12.5 10.5 73.8- 8.0 2.7---- 24.8------------
1987-08-13 15.3 19.0 12.3 11.5 73.8- 3.3 4.3---- 0.0------------
1987-08-12 14.0 16.6 11.0 9.9 72.0- 4.3 6.0---- 0.1------------
1987-08-11 13.8 15.8 11.7 11.3 74.5- 6.0 4.3---- 0.9------------
1987-08-10 14.2 15.3 12.1 13.2 84.8- 7.3 4.0---- 0.9------------
1987-08-09 15.5 20.0 13.1 12.1 73.0- 5.7 2.0---- 1.3------------
1987-08-08 15.8 20.7 11.3 8.8 52.8- 4.3 4.3---- 0.0------------
1987-08-07 13.7 17.5 11.2 10.7 64.8- 4.7 3.0---- 0.0------------
1987-08-06 13.0 16.4 10.6 9.1 82.3- 7.3 3.0---- 5.8------------
1987-08-05 13.2 15.5 10.7 10.2 80.5- 7.0 4.7---- 2.8------------
1987-08-04 13.1 16.6 11.6 11.3 79.3- 5.3 2.3---- 2.5------------
1987-08-03 14.3 17.8 11.4 10.7 71.8- 6.3 4.3---- 0.6------------
1987-08-02 13.9 16.9 10.5 9.9 70.0- 4.7 5.7---- 3.8------------
1987-08-01 16.3 19.3 13.6 13.7 75.0- 6.7 4.7---- 1.0------------
1987-07-31 16.2 17.5 14.0 15.3 73.5- 7.3 5.7---- 1.2------------
1987-07-30 16.2 18.5 13.3 13.0 73.3- 6.3 4.0---- 0.1------------
1987-07-29 14.5 16.9 12.6 12.6 73.3- 7.0 5.0---- 0.0------------
1987-07-28 15.5 18.9 11.3 11.0 69.5- 6.3 5.3---- 0.1------------
1987-07-27 13.2 15.1 11.1 10.2 71.3- 7.0 6.3---- 0.5------------
1987-07-26 14.1 16.7 10.3 9.9 64.0- 4.3 5.0---- 0.4------------
1987-07-25 15.4 19.6 13.3 13.4 73.8- 5.7 5.0---- 0.5------------
1987-07-24 18.0 22.0 15.7 15.2 84.8- 5.0 1.7---- 2.6------------
1987-07-23 16.1 17.6 14.6 14.2 95.5- 7.0 0.7---- 6.5------------
1987-07-22 15.9 17.7 13.5 14.6 95.3- 7.0 1.0---- 0.0------------
1987-07-21 14.7 16.3 12.6 12.3 94.0- 5.0 0.7---- 0.0------------
1987-07-20 15.8 17.0 15.0 15.0 93.5- 8.0 3.0---- 8.2------------
1987-07-19 16.5 18.4 15.4 15.3 83.5- 7.3 7.0---- 45.8------------
1987-07-18 16.9 18.6 14.6 15.7 80.3- 6.7 5.7---- 0.0------------
1987-07-17 17.6 18.9 16.0 16.2 78.5- 2.7 7.7---- 0.0------------
1987-07-16 15.9 17.6 14.3 13.5 82.8- 4.0 4.7---- 0.0------------
1987-07-15 15.0 16.7 11.2 8.3 80.8- 1.3 2.0---- 0.0------------
1987-07-14 15.2 18.3 13.1 13.0 74.5- 2.3 3.7---- 0.0------------
1987-07-13 15.1 17.3 10.6 11.8 70.8- 4.3 5.7---- 2.5------------
1987-07-12 16.1 20.4 13.5 13.9 85.5- 8.0 3.7---- 7.9------------
1987-07-11 13.8 16.4 11.9 11.5 76.0- 7.7 3.7---- 2.1------------
1987-07-10 14.3 17.4 10.6 10.3 62.5- 5.0 7.3---- 0.8------------
1987-07-09 16.6 20.7 13.2 14.4 66.3- 4.7 5.3---- 1.4------------
1987-07-08 21.3 24.4 18.6 19.4 65.3- 5.3 1.7---- 0.1------------
1987-07-07 21.7 27.4 15.7 11.2 52.5- 1.7 2.0---- 0.0------------
1987-07-06 16.5 18.9 11.3 6.0 64.0- 1.0 0.7---- 0.0------------
1987-07-05 14.5 15.8 11.2 10.6 68.0- 0.3 3.0---- 0.0------------
1987-07-04 15.0 16.5 12.6 10.4 70.5- 4.0 2.7---- 0.0------------
1987-07-03 15.3 18.4 14.6 11.2 66.0- 1.3 1.0---- 0.0------------
1987-07-02 16.2 20.3 13.8 12.1 67.0- 2.7 4.0---- 0.0------------
1987-07-01 19.9 26.5 17.5 18.2 82.5- 7.3 2.7---- 2.8------------
1987-06-30 19.9 28.5 15.3 16.4 85.5- 6.7 0.7---- 0.0------------
1987-06-29 17.5 22.7 11.5 10.0 72.0- 6.7 2.3---- 0.0------------
1987-06-28 12.8 15.6 10.7 11.0 87.5- 5.7 4.3---- 0.1------------
1987-06-27 15.1 18.6 13.1 13.6 66.5- 5.3 5.3---- 6.4------------
1987-06-26 15.7 19.6 10.2 9.2 59.8- 6.7 3.7---- 0.0------------
1987-06-25 13.8 17.3 10.1 7.2 57.8- 6.0 3.7---- 0.0------------
1987-06-24 14.2 16.3 12.2 11.2 78.0- 7.7 3.7---- 0.3------------
1987-06-23 13.4 16.5 11.0 9.9 76.5- 7.0 2.0---- 6.5------------
1987-06-22 15.5 17.7 13.3 13.4 72.0- 6.3 3.3---- 0.1------------
1987-06-21 15.5 18.7 12.3 10.6 73.0- 4.0 0.3---- 1.1------------
1987-06-20 12.4 15.8 9.2 5.7 81.0- 3.3 3.3---- 0.0------------
1987-06-19 11.5 15.3 9.6 9.8 77.5- 7.3 5.3---- 0.0------------
1987-06-18 13.0 16.4 8.2 7.7 60.5- 4.0 5.0---- 0.1------------
1987-06-17 12.9 15.6 10.5 10.0 56.5- 6.3 6.0---- 0.0------------
1987-06-16 12.0 16.1 10.4 11.0 87.0- 7.3 4.3---- 0.7------------
430.4 ms

 

Źródłem pochodzenia danych jest Instytut Meteorologii i Gospodarki Wodnej – Państwowy Instytut Badawczy. Dane Instytutu Meteorologii i Gospodarki Wodnej – Państwowego Instytutu Badawczego zostały przetworzone.

Dane źródłowe można odnaleźć na stronie https://dane.imgw.pl